Latest Weather Observations for Frankston

IDV60901

Issued at 4:21 pm EDT Wednesday 29 March 2017 (issued every 10 minutes, with the page automatically refreshed every 10 minutes)

About weather observations | Map of Melbourne area stations | Latest observations for Melbourne area | Other Formats
Station Details ID: 086371 Name: FRANKSTON AWS Lat: -38.15 Lon: 145.12 Height: 6.0 m
Data from the previous 72 hours. | See also: Recent months at Frankston
Date/Time
EDT
Temp
°C
App
Temp
°C
Dew
Point
°C
Rel
Hum
%
Delta-T
°C
Wind Press
QNH
hPa
Press
MSL
hPa
Rain since
9am
mm
Dir  Spd
km/h
Gust
km/h
Spd
kts
Gust
kts
29/04:00pm 23.1 21.2 15.2 61 4.7 NW 19 22 10 12 - - -
29/03:30pm 23.1 20.9 14.9 60 4.9 NW 20 28 11 15 - - -
29/03:00pm 22.8 21.0 15.4 63 4.4 NW 19 20 10 11 - - -
29/02:30pm 23.1 20.2 14.1 57 5.3 NW 22 30 12 16 - - -
29/02:00pm 22.9 20.2 14.7 60 4.9 NNW 22 32 12 17 - - -
29/01:30pm 22.6 19.0 14.2 59 4.9 NNW 26 33 14 18 - - -
29/01:00pm 22.5 18.7 13.6 57 5.2 NNW 26 35 14 19 - - -
29/12:30pm 22.2 18.0 13.5 57 5.0 NNW 28 35 15 19 - - -
29/12:00pm 22.0 17.8 13.6 59 4.9 NNW 28 39 15 21 - - -
29/11:30am 21.5 19.1 14.4 64 4.2 NNW 20 26 11 14 - - -
29/11:00am 21.0 17.7 12.9 60 4.6 N 22 26 12 14 - - -
29/10:30am 20.1 16.1 11.8 59 4.6 N 24 30 13 16 - - -
29/10:00am 19.1 16.0 12.1 64 3.9 N 20 26 11 14 - - -
29/09:30am 18.6 15.3 11.7 64 3.8 N 20 26 11 14 - - -
29/09:00am 18.5 16.9 12.9 70 3.1 N 13 17 7 9 - - -
29/08:30am 18.2 17.2 13.3 73 2.8 NNW 11 13 6 7 - - -
29/08:00am 18.2 16.9 12.6 70 3.1 NNW 11 15 6 8 - - -
29/07:30am 18.2 16.7 13.1 72 2.9 NNW 13 15 7 8 - - -
29/07:00am 18.2 16.5 12.4 69 3.2 NNW 13 15 7 8 - - -
29/06:30am 17.7 17.4 13.4 76 2.4 NNE 7 15 4 8 - - -
29/06:00am 16.1 16.3 13.2 83 1.6 E 4 6 2 3 - - -
29/05:30am 17.8 17.7 16.0 89 1.1 NNW 11 13 6 7 - - -
29/05:00am 18.0 17.2 16.0 88 1.2 NW 15 17 8 9 - - -
29/04:30am 18.2 16.6 15.1 82 1.8 NW 17 20 9 11 - - -
29/04:00am 16.1 15.4 11.5 74 2.5 ENE 6 9 3 5 - - -
29/03:30am 16.2 15.4 11.8 75 2.4 ENE 7 11 4 6 - - -
29/03:00am 15.6 14.8 11.2 75 2.4 E 6 7 3 4 - - -
29/02:30am 15.7 15.4 11.5 76 2.3 E 4 6 2 3 - - -
29/02:00am 16.5 16.0 12.1 75 2.4 E 6 7 3 4 - - -
29/01:30am 15.8 14.8 12.4 80 1.9 SE 9 13 5 7 - - -
29/01:00am 16.1 15.2 12.7 80 1.9 SE 9 13 5 7 - - -
29/12:30am 16.0 15.0 12.4 79 2.0 SE 9 15 5 8 - - -
29/12:00am 16.4 15.4 12.4 77 2.2 SE 9 13 5 7 - - -
 
Date/Time
EDT
Temp
°C
App
Temp
°C
Dew
Point
°C
Rel
Hum
%
Delta-T
°C
Wind Press
QNH
hPa
Press
MSL
hPa
Rain since
9am
mm
Dir  Spd
km/h
Gust
km/h
Spd
kts
Gust
kts
28/11:30pm 16.6 15.3 12.4 76 2.3 SE 11 17 6 9 - - -
28/11:00pm 16.8 15.5 12.5 76 2.4 SE 11 17 6 9 - - -
28/10:30pm 16.8 15.4 12.3 75 2.5 SE 11 17 6 9 - - -
28/10:00pm 17.0 15.2 12.1 73 2.7 SE 13 20 7 11 - - -
28/09:30pm 17.2 15.4 12.1 72 2.8 SE 13 20 7 11 - - -
28/09:00pm 17.3 15.4 11.8 70 3.0 SE 13 20 7 11 - - -
28/08:30pm 17.5 16.4 12.0 70 3.0 SE 9 19 5 10 - - -
28/08:00pm 18.1 16.6 11.9 67 3.4 SSE 11 19 6 10 - - -
28/07:30pm 20.9 21.1 10.4 51 5.7 CALM 0 0 0 0 - - -
28/07:00pm 22.6 22.6 9.7 44 7.0 CALM 0 0 0 0 - - -
28/06:30pm 21.6 21.4 9.2 45 6.6 CALM 0 0 0 0 - - -
28/06:00pm 21.4 21.4 9.9 48 6.2 CALM 0 0 0 0 - - -
28/05:30pm 21.6 21.5 9.5 46 6.5 CALM 0 0 0 0 - - -
28/05:00pm 21.4 21.7 10.9 51 5.8 CALM 0 0 0 0 - - -
28/04:30pm 20.5 20.2 10.0 51 5.6 NNW 2 4 1 2 - - -
28/04:00pm 19.9 19.7 10.6 55 5.0 N 2 6 1 3 - - -
28/03:30pm 19.5 18.8 10.2 55 5.0 N 4 6 2 3 - - -
28/03:00pm 19.2 18.6 10.5 57 4.7 N 4 6 2 3 - - -
28/02:30pm 18.6 17.4 10.4 59 4.4 N 7 11 4 6 - - -
28/02:00pm 18.4 17.4 11.0 62 4.0 NNW 7 13 4 7 - - -
28/01:30pm 18.0 17.1 10.6 62 4.0 NW 6 9 3 5 - - -
28/01:00pm 17.9 16.5 11.0 64 3.7 WNW 9 15 5 8 - - -
28/12:30pm 17.5 15.3 10.9 65 3.6 WNW 13 19 7 10 - - -
28/12:00pm 17.3 14.4 11.1 67 3.3 WNW 17 22 9 12 - - -
28/11:30am 17.0 14.2 11.3 69 3.1 NW 17 20 9 11 - - -
28/11:00am 16.9 14.2 11.6 71 2.9 WNW 17 20 9 11 - - -
28/10:30am 16.9 13.6 11.6 71 2.9 WNW 20 24 11 13 - - -
28/10:00am 16.9 13.6 11.6 71 2.9 WNW 20 24 11 13 - - -
28/09:30am 17.1 13.9 12.0 72 2.8 WNW 20 28 11 15 - - -
28/09:00am 16.8 13.1 11.5 71 2.9 WNW 22 28 12 15 - - -
28/08:30am 16.7 13.2 12.3 75 2.4 WNW 22 28 12 15 - - -
28/08:00am 16.8 13.3 12.3 75 2.5 WNW 22 26 12 14 - - -
28/07:30am 17.3 13.1 12.4 73 2.7 WNW 26 32 14 17 - - -
28/07:00am 17.2 12.5 12.1 72 2.8 W 28 33 15 18 - - -
28/06:30am 17.2 12.2 12.3 73 2.7 W 30 33 16 18 - - -
28/06:00am 17.3 13.0 12.2 72 2.8 W 26 32 14 17 - - -
28/05:30am 17.7 14.1 13.0 74 2.6 W 24 33 13 18 - - -
28/05:00am 17.4 13.3 12.7 74 2.6 WNW 26 30 14 16 - - -
28/04:30am 17.4 13.9 12.1 71 2.9 WNW 22 30 12 16 - - -
28/04:00am 17.6 13.8 11.2 66 3.5 WNW 22 28 12 15 - - -
28/03:30am 18.1 15.0 12.3 69 3.2 WNW 20 26 11 14 - - -
28/03:00am 17.9 14.6 11.5 66 3.5 WNW 20 26 11 14 - - -
28/02:30am 18.0 14.6 11.3 65 3.6 W 20 24 11 13 - - -
28/02:00am 18.0 13.7 10.9 63 3.8 W 24 28 13 15 - - -
28/01:30am 18.1 13.2 11.2 64 3.7 W 28 32 15 17 - - -
28/01:00am 18.3 14.1 11.1 63 3.9 W 24 30 13 16 - - -
28/12:30am 18.6 13.4 10.4 59 4.4 W 28 35 15 19 - - -
28/12:00am 19.0 14.3 10.8 59 4.4 W 26 32 14 17 - - -
 
Date/Time
EDT
Temp
°C
App
Temp
°C
Dew
Point
°C
Rel
Hum
%
Delta-T
°C
Wind Press
QNH
hPa
Press
MSL
hPa
Rain since
9am
mm
Dir  Spd
km/h
Gust
km/h
Spd
kts
Gust
kts
27/11:30pm 19.3 14.6 10.6 57 4.7 W 26 30 14 16 - - -
27/11:00pm 19.5 14.6 11.3 59 4.5 WSW 28 32 15 17 - - -
27/10:30pm 19.7 15.1 11.2 58 4.7 WSW 26 35 14 19 - - -
27/10:00pm 19.7 16.4 11.5 59 4.5 W 20 24 11 13 - - -
27/09:30pm 19.7 16.9 11.2 58 4.7 W 17 20 9 11 - - -
27/09:00pm 19.6 17.3 11.6 60 4.4 W 15 20 8 11 - - -
27/08:30pm 19.6 17.1 12.4 63 4.0 W 17 20 9 11 - - -
27/08:00pm 19.4 17.1 11.7 61 4.2 WNW 15 19 8 10 - - -
27/07:30pm 19.3 17.1 12.1 63 4.0 WNW 15 20 8 11 - - -
27/07:00pm 19.1 15.7 11.4 61 4.2 WNW 20 28 11 15 - - -
27/06:30pm 18.9 15.8 12.2 65 3.7 WNW 20 28 11 15 - - -
27/06:00pm 18.7 15.5 13.1 70 3.2 WNW 22 30 12 16 - - -
27/05:30pm 18.3 13.9 11.6 65 3.7 WNW 26 30 14 16 - - -
27/05:00pm 18.1 13.3 11.7 66 3.5 WNW 28 35 15 19 - - -
27/04:30pm 17.1 10.8 11.2 68 3.2 W 35 43 19 23 - - -
27/04:08pm 17.0 8.2 12.3 74 2.6 W 50 69 27 37 - - -
27/04:00pm 17.6 8.8 13.3 76 2.4 W 52 67 28 36 - - -
27/03:51pm 18.4 11.3 13.5 73 2.8 W 43 67 23 36 - - -
27/03:30pm 17.6 12.5 14.7 83 1.7 W 35 44 19 24 - - -
27/03:00pm 19.0 13.2 14.9 77 2.4 WSW 39 59 21 32 - - -
27/02:51pm 19.7 13.7 14.3 71 3.1 WSW 39 59 21 32 - - -
27/02:30pm 20.5 16.1 16.7 79 2.3 WSW 35 46 19 25 - - -
27/02:00pm 20.2 15.5 16.8 81 2.1 SW 37 57 20 31 - - -
27/01:30pm 22.3 14.9 17.2 73 3.1 SW 52 74 28 40 - - -
27/01:27pm 22.8 15.8 17.3 71 3.4 W 50 74 27 40 - - -
27/01:22pm 24.3 20.3 17.5 66 4.2 NW 35 65 19 35 - - -
27/01:20pm 26.6 23.7 17.9 59 5.5 NNW 30 56 16 30 - - -
27/01:00pm 27.6 23.9 17.5 54 6.4 NNW 33 43 18 23 - - -
27/12:37pm 26.9 23.2 17.4 56 6.0 NNW 33 46 18 25 - - -
27/12:30pm 28.4 23.8 17.0 50 7.1 N 37 57 20 31 - - -
27/12:22pm 29.7 25.5 16.1 43 8.4 N 33 57 18 31 - - -
27/12:00pm 29.1 24.3 16.6 46 7.8 N 37 54 20 29 - - -
27/11:30am 27.7 22.5 16.6 50 6.9 N 39 52 21 28 - - -
27/11:00am 28.4 22.2 16.0 47 7.7 NNE 43 59 23 32 - - -
27/10:54am 28.7 23.6 15.9 45 7.9 NNE 37 57 20 31 - - -
27/10:30am 27.4 21.8 16.4 51 6.8 NNE 41 57 22 31 - - -
27/10:01am 28.0 23.1 15.3 46 7.7 NNE 35 57 19 31 - - -
27/10:00am 28.1 23.6 15.4 46 7.8 NNE 33 46 18 25 - - -
27/09:30am 27.2 24.3 15.2 47 7.3 NNE 24 39 13 21 - - -
27/09:00am 27.1 24.6 15.1 47 7.3 NNE 22 35 12 19 - - -
27/08:30am 26.7 23.5 15.4 50 6.9 NNE 26 39 14 21 - - -
27/08:00am 25.7 23.5 16.0 55 5.9 NNE 22 32 12 17 - - -
27/07:30am 25.9 24.4 15.3 52 6.4 NE 17 30 9 16 - - -
27/07:00am 25.6 24.6 15.6 54 6.1 NE 15 24 8 13 - - -
27/06:30am 25.4 25.2 15.7 55 5.9 NE 11 20 6 11 - - -
27/06:00am 25.0 24.3 15.3 55 5.8 NE 13 19 7 10 - - -
27/05:30am 24.9 24.5 15.2 54 5.8 NNE 11 17 6 9 - - -
27/05:00am 23.9 24.2 14.6 56 5.5 NE 6 7 3 4 - - -
27/04:30am 23.4 23.4 15.2 60 4.9 NE 9 15 5 8 - - -
27/04:00am 23.0 23.3 15.1 61 4.7 ENE 7 13 4 7 - - -
27/03:30am 22.4 23.3 16.2 68 3.8 E 6 11 3 6 - - -
27/03:00am 22.0 22.9 16.7 72 3.2 E 7 9 4 5 - - -
27/02:30am 21.3 22.6 17.5 79 2.3 E 7 11 4 6 - - -
27/02:00am 20.3 21.7 17.7 85 1.6 E 7 11 4 6 - - -
27/01:30am 20.0 21.6 17.8 87 1.4 ESE 6 7 3 4 - - -
27/01:00am 19.9 21.3 17.7 87 1.4 ESE 7 11 4 6 - - -
27/12:30am 19.9 21.4 17.7 87 1.4 ESE 6 9 3 5 - - -
27/12:00am 19.3 20.5 17.3 88 1.2 ESE 7 11 4 6 - - -
 
Date/Time
EDT
Temp
°C
App
Temp
°C
Dew
Point
°C
Rel
Hum
%
Delta-T
°C
Wind Press
QNH
hPa
Press
MSL
hPa
Rain since
9am
mm
Dir  Spd
km/h
Gust
km/h
Spd
kts
Gust
kts
26/11:30pm 19.1 20.2 16.7 86 1.4 E 6 7 3 4 - - -
26/11:00pm 19.9 21.2 17.1 84 1.7 E 6 11 3 6 - - -
26/10:30pm 19.7 20.0 17.1 85 1.6 ESE 11 17 6 9 - - -
26/10:00pm 19.6 20.5 16.6 83 1.8 ESE 7 17 4 9 - - -
26/09:30pm 19.6 21.0 16.4 82 1.9 ESE 4 7 2 4 - - -
26/09:00pm 19.8 21.3 16.6 82 1.9 ENE 4 9 2 5 - - -
26/08:30pm 19.9 20.0 16.5 81 2.0 SSE 11 19 6 10 - - -
26/08:00pm 20.3 20.1 16.7 80 2.2 SE 13 24 7 13 - - -
26/07:30pm 20.9 21.5 16.7 77 2.5 SSE 9 19 5 10 - - -
26/07:00pm 21.7 22.0 16.9 74 2.9 SSE 11 22 6 12 - - -
26/06:30pm 23.0 23.9 17.5 71 3.4 SSE 9 17 5 9 - - -
26/06:00pm 23.9 24.8 17.6 68 3.9 SE 9 17 5 9 - - -
26/05:30pm 25.0 26.5 18.0 65 4.4 SE 7 13 4 7 - - -
26/05:00pm 24.6 25.5 17.6 65 4.4 SE 9 19 5 10 - - -
26/04:30pm 24.5 25.6 18.0 67 4.1 ESE 9 17 5 9 - - -

Latest Capital City Observations: Canberra | Sydney | Melbourne | Brisbane | Adelaide | Perth | Hobart | Darwin

Other Formats:

Comma delimited format used in spreadsheet applications
http://www.bom.gov.au/fwo/IDV60901/IDV60901.94871.axf

JavaScript Object Notation format (JSON) in row-major order
http://www.bom.gov.au/fwo/IDV60901/IDV60901.94871.json